sensor_id;sensor_type;location;lat;lon;timestamp;P1;durP1;ratioP1;P2;durP2;ratioP2
22929;SDS011;11630;42.660;23.292;2023-07-20T00:00:25;10.07;;;2.40;;
22929;SDS011;11630;42.660;23.292;2023-07-20T00:03:09;9.40;;;3.00;;
22929;SDS011;11630;42.660;23.292;2023-07-20T00:05:39;9.90;;;3.27;;
22929;SDS011;11630;42.660;23.292;2023-07-20T00:08:10;10.27;;;3.00;;
22929;SDS011;11630;42.660;23.292;2023-07-20T00:10:41;10.93;;;2.50;;
22929;SDS011;11630;42.660;23.292;2023-07-20T00:13:11;9.97;;;3.07;;
22929;SDS011;11630;42.660;23.292;2023-07-20T00:15:42;9.43;;;3.10;;
22929;SDS011;11630;42.660;23.292;2023-07-20T00:18:12;7.37;;;3.43;;
22929;SDS011;11630;42.660;23.292;2023-07-20T00:20:43;11.57;;;3.70;;
22929;SDS011;11630;42.660;23.292;2023-07-20T00:23:13;9.73;;;3.30;;
22929;SDS011;11630;42.660;23.292;2023-07-20T00:25:44;8.50;;;3.13;;
22929;SDS011;11630;42.660;23.292;2023-07-20T00:28:16;10.87;;;3.30;;
22929;SDS011;11630;42.660;23.292;2023-07-20T00:30:47;7.77;;;3.30;;
22929;SDS011;11630;42.660;23.292;2023-07-20T00:33:18;9.57;;;4.13;;
22929;SDS011;11630;42.660;23.292;2023-07-20T00:35:48;17.23;;;4.13;;
22929;SDS011;11630;42.660;23.292;2023-07-20T00:38:19;13.83;;;3.20;;
22929;SDS011;11630;42.660;23.292;2023-07-20T00:40:51;8.97;;;2.87;;
22929;SDS011;11630;42.660;23.292;2023-07-20T00:43:21;8.13;;;3.60;;
22929;SDS011;11630;42.660;23.292;2023-07-20T00:45:52;10.23;;;3.20;;
22929;SDS011;11630;42.660;23.292;2023-07-20T00:48:24;8.80;;;3.27;;
22929;SDS011;11630;42.660;23.292;2023-07-20T00:50:56;9.23;;;3.10;;
22929;SDS011;11630;42.660;23.292;2023-07-20T00:53:27;7.23;;;3.20;;
22929;SDS011;11630;42.660;23.292;2023-07-20T00:55:59;10.43;;;3.30;;
22929;SDS011;11630;42.660;23.292;2023-07-20T00:58:29;14.80;;;2.90;;
22929;SDS011;11630;42.660;23.292;2023-07-20T01:01:01;9.43;;;3.23;;
22929;SDS011;11630;42.660;23.292;2023-07-20T01:03:32;6.07;;;3.27;;
22929;SDS011;11630;42.660;23.292;2023-07-20T01:13:54;9.67;;;2.97;;
22929;SDS011;11630;42.660;23.292;2023-07-20T01:16:27;6.27;;;2.73;;
22929;SDS011;11630;42.660;23.292;2023-07-20T01:18:56;13.50;;;2.97;;
22929;SDS011;11630;42.660;23.292;2023-07-20T01:21:32;15.23;;;4.77;;
22929;SDS011;11630;42.660;23.292;2023-07-20T01:24:18;20.87;;;9.33;;
22929;SDS011;11630;42.660;23.292;2023-07-20T01:27:19;14.97;;;5.90;;
22929;SDS011;11630;42.660;23.292;2023-07-20T01:30:04;10.50;;;4.03;;
22929;SDS011;11630;42.660;23.292;2023-07-20T01:32:39;14.03;;;3.70;;
22929;SDS011;11630;42.660;23.292;2023-07-20T01:35:13;5.07;;;3.33;;
22929;SDS011;11630;42.660;23.292;2023-07-20T01:37:45;10.37;;;4.10;;
22929;SDS011;11630;42.660;23.292;2023-07-20T01:40:18;7.93;;;3.17;;
22929;SDS011;11630;42.660;23.292;2023-07-20T01:42:48;12.87;;;3.17;;
22929;SDS011;11630;42.660;23.292;2023-07-20T01:45:17;7.10;;;3.40;;
22929;SDS011;11630;42.660;23.292;2023-07-20T01:47:48;9.50;;;3.97;;
22929;SDS011;11630;42.660;23.292;2023-07-20T01:50:19;8.47;;;3.30;;
22929;SDS011;11630;42.660;23.292;2023-07-20T01:52:50;8.57;;;3.70;;
22929;SDS011;11630;42.660;23.292;2023-07-20T01:55:21;11.60;;;4.00;;
22929;SDS011;11630;42.660;23.292;2023-07-20T01:57:52;9.00;;;4.17;;
22929;SDS011;11630;42.660;23.292;2023-07-20T02:00:23;10.63;;;3.47;;
22929;SDS011;11630;42.660;23.292;2023-07-20T02:02:53;11.53;;;3.47;;
22929;SDS011;11630;42.660;23.292;2023-07-20T02:05:24;12.10;;;3.60;;
22929;SDS011;11630;42.660;23.292;2023-07-20T02:07:55;9.47;;;3.30;;
22929;SDS011;11630;42.660;23.292;2023-07-20T02:10:26;10.23;;;3.13;;
22929;SDS011;11630;42.660;23.292;2023-07-20T02:12:57;11.23;;;3.10;;
22929;SDS011;11630;42.660;23.292;2023-07-20T02:15:27;16.60;;;3.80;;
22929;SDS011;11630;42.660;23.292;2023-07-20T02:17:58;5.77;;;2.80;;
22929;SDS011;11630;42.660;23.292;2023-07-20T02:20:28;8.20;;;3.10;;
22929;SDS011;11630;42.660;23.292;2023-07-20T02:23:00;9.37;;;3.03;;
22929;SDS011;11630;42.660;23.292;2023-07-20T02:25:30;13.27;;;3.23;;
22929;SDS011;11630;42.660;23.292;2023-07-20T02:27:59;9.30;;;4.70;;
22929;SDS011;11630;42.660;23.292;2023-07-20T02:30:34;13.07;;;5.10;;
22929;SDS011;11630;42.660;23.292;2023-07-20T02:33:05;7.97;;;3.67;;
22929;SDS011;11630;42.660;23.292;2023-07-20T02:35:36;11.33;;;4.00;;
22929;SDS011;11630;42.660;23.292;2023-07-20T02:38:07;9.23;;;3.73;;
22929;SDS011;11630;42.660;23.292;2023-07-20T02:40:38;9.33;;;3.47;;
22929;SDS011;11630;42.660;23.292;2023-07-20T02:43:09;11.27;;;3.07;;
22929;SDS011;11630;42.660;23.292;2023-07-20T02:45:40;10.43;;;3.50;;
22929;SDS011;11630;42.660;23.292;2023-07-20T02:48:10;11.27;;;4.03;;
22929;SDS011;11630;42.660;23.292;2023-07-20T02:50:41;9.93;;;3.77;;
22929;SDS011;11630;42.660;23.292;2023-07-20T02:53:15;15.47;;;4.03;;
22929;SDS011;11630;42.660;23.292;2023-07-20T02:55:46;7.77;;;3.43;;
22929;SDS011;11630;42.660;23.292;2023-07-20T02:58:16;10.17;;;3.83;;
22929;SDS011;11630;42.660;23.292;2023-07-20T03:00:47;8.70;;;3.13;;
22929;SDS011;11630;42.660;23.292;2023-07-20T03:03:18;8.93;;;3.60;;
22929;SDS011;11630;42.660;23.292;2023-07-20T03:05:49;5.70;;;3.70;;
22929;SDS011;11630;42.660;23.292;2023-07-20T03:08:20;7.10;;;3.37;;
22929;SDS011;11630;42.660;23.292;2023-07-20T03:10:50;10.13;;;3.97;;
22929;SDS011;11630;42.660;23.292;2023-07-20T03:13:20;7.67;;;3.77;;
22929;SDS011;11630;42.660;23.292;2023-07-20T03:15:52;11.03;;;4.00;;
22929;SDS011;11630;42.660;23.292;2023-07-20T03:18:23;14.13;;;4.27;;
22929;SDS011;11630;42.660;23.292;2023-07-20T03:20:54;15.27;;;3.70;;
22929;SDS011;11630;42.660;23.292;2023-07-20T03:23:24;14.70;;;3.93;;
22929;SDS011;11630;42.660;23.292;2023-07-20T03:25:55;12.03;;;3.53;;
22929;SDS011;11630;42.660;23.292;2023-07-20T03:28:25;10.73;;;4.50;;
22929;SDS011;11630;42.660;23.292;2023-07-20T03:30:55;19.90;;;5.27;;
22929;SDS011;11630;42.660;23.292;2023-07-20T03:33:27;11.20;;;4.43;;
22929;SDS011;11630;42.660;23.292;2023-07-20T03:35:58;11.70;;;4.37;;
22929;SDS011;11630;42.660;23.292;2023-07-20T03:38:29;6.83;;;3.57;;
22929;SDS011;11630;42.660;23.292;2023-07-20T03:41:00;14.10;;;4.37;;
22929;SDS011;11630;42.660;23.292;2023-07-20T03:43:31;10.50;;;4.67;;
22929;SDS011;11630;42.660;23.292;2023-07-20T03:46:02;16.80;;;4.50;;
22929;SDS011;11630;42.660;23.292;2023-07-20T03:48:33;9.53;;;3.53;;
22929;SDS011;11630;42.660;23.292;2023-07-20T03:51:04;11.83;;;4.27;;
22929;SDS011;11630;42.660;23.292;2023-07-20T03:53:35;7.87;;;4.10;;
22929;SDS011;11630;42.660;23.292;2023-07-20T03:56:05;17.23;;;4.27;;
22929;SDS011;11630;42.660;23.292;2023-07-20T03:58:37;19.17;;;5.30;;
22929;SDS011;11630;42.660;23.292;2023-07-20T04:01:08;15.63;;;4.73;;
22929;SDS011;11630;42.660;23.292;2023-07-20T04:03:39;13.83;;;6.33;;
22929;SDS011;11630;42.660;23.292;2023-07-20T04:06:09;17.07;;;5.00;;
22929;SDS011;11630;42.660;23.292;2023-07-20T04:08:40;11.87;;;4.50;;
22929;SDS011;11630;42.660;23.292;2023-07-20T04:11:11;15.23;;;5.37;;
22929;SDS011;11630;42.660;23.292;2023-07-20T04:13:42;12.80;;;4.53;;
22929;SDS011;11630;42.660;23.292;2023-07-20T04:16:13;15.77;;;3.77;;
22929;SDS011;11630;42.660;23.292;2023-07-20T04:18:44;17.80;;;4.67;;
22929;SDS011;11630;42.660;23.292;2023-07-20T04:21:14;9.77;;;4.30;;
22929;SDS011;11630;42.660;23.292;2023-07-20T04:23:45;17.60;;;4.30;;
22929;SDS011;11630;42.660;23.292;2023-07-20T04:26:16;12.10;;;4.67;;
22929;SDS011;11630;42.660;23.292;2023-07-20T04:28:46;14.43;;;4.30;;
22929;SDS011;11630;42.660;23.292;2023-07-20T04:31:17;11.17;;;4.47;;
22929;SDS011;11630;42.660;23.292;2023-07-20T04:33:48;14.93;;;4.13;;
22929;SDS011;11630;42.660;23.292;2023-07-20T04:36:19;14.17;;;3.50;;
22929;SDS011;11630;42.660;23.292;2023-07-20T04:38:50;9.47;;;4.20;;
22929;SDS011;11630;42.660;23.292;2023-07-20T04:41:21;9.47;;;4.07;;
22929;SDS011;11630;42.660;23.292;2023-07-20T04:43:52;12.87;;;4.20;;
22929;SDS011;11630;42.660;23.292;2023-07-20T04:46:23;10.10;;;4.33;;
22929;SDS011;11630;42.660;23.292;2023-07-20T04:48:53;7.43;;;3.83;;
22929;SDS011;11630;42.660;23.292;2023-07-20T04:51:24;13.37;;;3.77;;
22929;SDS011;11630;42.660;23.292;2023-07-20T04:53:55;15.80;;;4.43;;
22929;SDS011;11630;42.660;23.292;2023-07-20T04:56:26;9.50;;;4.67;;
22929;SDS011;11630;42.660;23.292;2023-07-20T04:58:57;10.67;;;4.47;;
22929;SDS011;11630;42.660;23.292;2023-07-20T05:01:27;17.77;;;5.30;;
22929;SDS011;11630;42.660;23.292;2023-07-20T05:03:57;21.40;;;5.20;;
22929;SDS011;11630;42.660;23.292;2023-07-20T05:06:28;17.03;;;3.63;;
22929;SDS011;11630;42.660;23.292;2023-07-20T05:08:59;14.77;;;4.10;;
22929;SDS011;11630;42.660;23.292;2023-07-20T05:11:29;13.30;;;4.33;;
22929;SDS011;11630;42.660;23.292;2023-07-20T05:14:06;15.33;;;4.13;;
22929;SDS011;11630;42.660;23.292;2023-07-20T05:16:37;13.20;;;4.33;;
22929;SDS011;11630;42.660;23.292;2023-07-20T05:19:08;20.77;;;3.80;;
22929;SDS011;11630;42.660;23.292;2023-07-20T05:21:38;17.70;;;5.63;;
22929;SDS011;11630;42.660;23.292;2023-07-20T05:24:09;20.60;;;4.50;;
22929;SDS011;11630;42.660;23.292;2023-07-20T05:26:40;11.30;;;4.30;;
22929;SDS011;11630;42.660;23.292;2023-07-20T05:29:11;13.20;;;3.90;;
22929;SDS011;11630;42.660;23.292;2023-07-20T05:31:41;12.83;;;4.43;;
22929;SDS011;11630;42.660;23.292;2023-07-20T05:34:12;14.03;;;3.90;;
22929;SDS011;11630;42.660;23.292;2023-07-20T05:39:38;10.33;;;3.70;;
22929;SDS011;11630;42.660;23.292;2023-07-20T05:42:09;15.50;;;4.40;;
22929;SDS011;11630;42.660;23.292;2023-07-20T05:44:40;16.30;;;4.10;;
22929;SDS011;11630;42.660;23.292;2023-07-20T05:47:10;9.00;;;3.77;;
22929;SDS011;11630;42.660;23.292;2023-07-20T05:49:40;9.73;;;3.83;;
22929;SDS011;11630;42.660;23.292;2023-07-20T05:52:14;7.67;;;3.33;;
22929;SDS011;11630;42.660;23.292;2023-07-20T05:54:44;13.43;;;4.33;;
22929;SDS011;11630;42.660;23.292;2023-07-20T05:57:14;9.77;;;3.87;;
22929;SDS011;11630;42.660;23.292;2023-07-20T05:59:45;9.80;;;4.00;;
22929;SDS011;11630;42.660;23.292;2023-07-20T06:02:16;7.80;;;3.60;;
22929;SDS011;11630;42.660;23.292;2023-07-20T06:04:47;7.27;;;4.03;;
22929;SDS011;11630;42.660;23.292;2023-07-20T06:07:18;13.63;;;4.30;;
22929;SDS011;11630;42.660;23.292;2023-07-20T06:09:48;8.30;;;4.60;;
22929;SDS011;11630;42.660;23.292;2023-07-20T06:12:19;17.47;;;4.07;;
22929;SDS011;11630;42.660;23.292;2023-07-20T06:14:50;15.90;;;4.40;;
22929;SDS011;11630;42.660;23.292;2023-07-20T06:17:20;16.47;;;4.63;;
22929;SDS011;11630;42.660;23.292;2023-07-20T06:19:52;16.20;;;4.83;;
22929;SDS011;11630;42.660;23.292;2023-07-20T06:22:23;9.80;;;3.70;;
22929;SDS011;11630;42.660;23.292;2023-07-20T06:24:53;14.30;;;5.30;;
22929;SDS011;11630;42.660;23.292;2023-07-20T06:27:23;11.10;;;4.13;;
22929;SDS011;11630;42.660;23.292;2023-07-20T06:29:54;11.93;;;4.13;;
22929;SDS011;11630;42.660;23.292;2023-07-20T06:32:25;10.63;;;3.87;;
22929;SDS011;11630;42.660;23.292;2023-07-20T06:34:56;14.37;;;4.10;;
22929;SDS011;11630;42.660;23.292;2023-07-20T06:37:27;10.70;;;4.37;;
22929;SDS011;11630;42.660;23.292;2023-07-20T06:39:58;13.77;;;3.93;;
22929;SDS011;11630;42.660;23.292;2023-07-20T06:42:29;23.80;;;5.23;;
22929;SDS011;11630;42.660;23.292;2023-07-20T06:44:59;12.17;;;4.13;;
22929;SDS011;11630;42.660;23.292;2023-07-20T06:47:30;11.73;;;4.37;;
22929;SDS011;11630;42.660;23.292;2023-07-20T06:50:00;17.37;;;4.27;;
22929;SDS011;11630;42.660;23.292;2023-07-20T06:52:30;12.53;;;4.33;;
22929;SDS011;11630;42.660;23.292;2023-07-20T06:55:01;6.53;;;3.63;;
22929;SDS011;11630;42.660;23.292;2023-07-20T06:57:33;10.87;;;4.20;;
22929;SDS011;11630;42.660;23.292;2023-07-20T07:00:04;10.13;;;3.50;;
22929;SDS011;11630;42.660;23.292;2023-07-20T07:02:36;8.63;;;3.90;;
22929;SDS011;11630;42.660;23.292;2023-07-20T07:05:07;9.18;;;3.83;;
22929;SDS011;11630;42.660;23.292;2023-07-20T07:07:38;10.98;;;3.65;;
22929;SDS011;11630;42.660;23.292;2023-07-20T07:10:08;11.03;;;3.40;;
22929;SDS011;11630;42.660;23.292;2023-07-20T07:12:40;13.40;;;4.10;;
22929;SDS011;11630;42.660;23.292;2023-07-20T07:15:11;10.08;;;4.62;;
22929;SDS011;11630;42.660;23.292;2023-07-20T07:17:42;11.53;;;5.57;;
22929;SDS011;11630;42.660;23.292;2023-07-20T07:20:12;15.28;;;4.85;;
22929;SDS011;11630;42.660;23.292;2023-07-20T07:22:44;17.30;;;4.43;;
22929;SDS011;11630;42.660;23.292;2023-07-20T07:25:15;15.53;;;4.60;;
22929;SDS011;11630;42.660;23.292;2023-07-20T07:27:46;16.23;;;4.90;;
22929;SDS011;11630;42.660;23.292;2023-07-20T07:30:17;12.15;;;4.80;;
22929;SDS011;11630;42.660;23.292;2023-07-20T07:32:47;16.40;;;4.65;;
22929;SDS011;11630;42.660;23.292;2023-07-20T07:35:18;11.30;;;4.87;;
22929;SDS011;11630;42.660;23.292;2023-07-20T07:37:49;13.78;;;4.30;;
22929;SDS011;11630;42.660;23.292;2023-07-20T07:40:20;14.67;;;4.70;;
22929;SDS011;11630;42.660;23.292;2023-07-20T07:42:51;17.57;;;5.10;;
22929;SDS011;11630;42.660;23.292;2023-07-20T07:45:21;13.03;;;4.67;;
22929;SDS011;11630;42.660;23.292;2023-07-20T07:47:50;8.45;;;4.20;;
22929;SDS011;11630;42.660;23.292;2023-07-20T07:50:21;13.38;;;4.45;;
22929;SDS011;11630;42.660;23.292;2023-07-20T07:52:52;15.43;;;4.70;;
22929;SDS011;11630;42.660;23.292;2023-07-20T07:55:26;15.90;;;5.83;;
22929;SDS011;11630;42.660;23.292;2023-07-20T07:57:56;18.27;;;5.03;;
22929;SDS011;11630;42.660;23.292;2023-07-20T08:00:27;14.00;;;5.83;;
22929;SDS011;11630;42.660;23.292;2023-07-20T08:02:58;8.43;;;4.55;;
22929;SDS011;11630;42.660;23.292;2023-07-20T08:05:28;8.75;;;4.65;;
22929;SDS011;11630;42.660;23.292;2023-07-20T08:07:59;17.52;;;4.65;;
22929;SDS011;11630;42.660;23.292;2023-07-20T08:10:42;14.70;;;5.47;;
22929;SDS011;11630;42.660;23.292;2023-07-20T08:13:17;14.25;;;5.72;;
22929;SDS011;11630;42.660;23.292;2023-07-20T08:15:49;16.30;;;5.27;;
22929;SDS011;11630;42.660;23.292;2023-07-20T08:18:20;13.20;;;4.22;;
22929;SDS011;11630;42.660;23.292;2023-07-20T08:20:51;13.20;;;4.87;;
22929;SDS011;11630;42.660;23.292;2023-07-20T08:23:21;8.90;;;4.17;;
22929;SDS011;11630;42.660;23.292;2023-07-20T08:25:52;12.30;;;3.30;;
22929;SDS011;11630;42.660;23.292;2023-07-20T08:28:23;8.93;;;3.13;;
22929;SDS011;11630;42.660;23.292;2023-07-20T08:30:54;12.13;;;3.50;;
22929;SDS011;11630;42.660;23.292;2023-07-20T08:33:24;8.17;;;2.63;;
22929;SDS011;11630;42.660;23.292;2023-07-20T08:35:54;12.47;;;3.30;;
22929;SDS011;11630;42.660;23.292;2023-07-20T08:38:26;7.30;;;2.67;;
22929;SDS011;11630;42.660;23.292;2023-07-20T08:40:56;6.70;;;2.70;;
22929;SDS011;11630;42.660;23.292;2023-07-20T08:43:27;10.67;;;3.37;;
22929;SDS011;11630;42.660;23.292;2023-07-20T08:45:59;9.87;;;2.87;;
22929;SDS011;11630;42.660;23.292;2023-07-20T08:48:31;12.33;;;3.17;;
22929;SDS011;11630;42.660;23.292;2023-07-20T08:51:02;10.18;;;3.65;;
22929;SDS011;11630;42.660;23.292;2023-07-20T08:53:37;8.50;;;2.73;;
22929;SDS011;11630;42.660;23.292;2023-07-20T08:56:08;14.57;;;3.07;;
22929;SDS011;11630;42.660;23.292;2023-07-20T08:58:40;10.03;;;3.03;;
22929;SDS011;11630;42.660;23.292;2023-07-20T09:01:14;11.55;;;3.10;;
22929;SDS011;11630;42.660;23.292;2023-07-20T09:03:46;8.83;;;2.90;;
22929;SDS011;11630;42.660;23.292;2023-07-20T09:06:16;12.63;;;3.98;;
22929;SDS011;11630;42.660;23.292;2023-07-20T09:08:47;11.07;;;3.53;;
22929;SDS011;11630;42.660;23.292;2023-07-20T09:11:19;10.55;;;3.05;;
22929;SDS011;11630;42.660;23.292;2023-07-20T09:14:12;14.77;;;2.80;;
22929;SDS011;11630;42.660;23.292;2023-07-20T09:16:50;8.23;;;3.27;;
22929;SDS011;11630;42.660;23.292;2023-07-20T09:19:26;7.87;;;3.23;;
22929;SDS011;11630;42.660;23.292;2023-07-20T09:21:57;10.18;;;3.20;;
22929;SDS011;11630;42.660;23.292;2023-07-20T09:24:28;9.00;;;3.50;;
22929;SDS011;11630;42.660;23.292;2023-07-20T09:26:59;7.05;;;3.08;;
22929;SDS011;11630;42.660;23.292;2023-07-20T09:29:33;5.70;;;2.50;;
22929;SDS011;11630;42.660;23.292;2023-07-20T09:32:04;8.93;;;3.15;;
22929;SDS011;11630;42.660;23.292;2023-07-20T09:34:35;7.33;;;2.95;;
22929;SDS011;11630;42.660;23.292;2023-07-20T09:37:07;7.50;;;3.08;;
22929;SDS011;11630;42.660;23.292;2023-07-20T09:39:46;8.13;;;3.60;;
22929;SDS011;11630;42.660;23.292;2023-07-20T09:42:17;8.80;;;3.25;;
22929;SDS011;11630;42.660;23.292;2023-07-20T09:44:48;13.68;;;3.65;;
22929;SDS011;11630;42.660;23.292;2023-07-20T09:47:22;7.20;;;3.15;;
22929;SDS011;11630;42.660;23.292;2023-07-20T09:50:00;15.93;;;3.22;;
22929;SDS011;11630;42.660;23.292;2023-07-20T09:52:30;4.92;;;2.98;;
22929;SDS011;11630;42.660;23.292;2023-07-20T09:55:02;10.45;;;2.98;;
22929;SDS011;11630;42.660;23.292;2023-07-20T09:57:33;12.18;;;2.95;;
22929;SDS011;11630;42.660;23.292;2023-07-20T10:00:05;11.80;;;3.70;;
22929;SDS011;11630;42.660;23.292;2023-07-20T10:02:40;7.50;;;3.10;;
22929;SDS011;11630;42.660;23.292;2023-07-20T10:05:13;9.13;;;3.25;;
22929;SDS011;11630;42.660;23.292;2023-07-20T10:07:45;3.65;;;2.42;;
22929;SDS011;11630;42.660;23.292;2023-07-20T10:10:17;8.90;;;2.87;;
22929;SDS011;11630;42.660;23.292;2023-07-20T10:12:48;9.57;;;2.80;;
22929;SDS011;11630;42.660;23.292;2023-07-20T10:15:19;4.00;;;2.73;;
22929;SDS011;11630;42.660;23.292;2023-07-20T10:18:06;6.42;;;2.42;;
22929;SDS011;11630;42.660;23.292;2023-07-20T10:20:32;4.03;;;2.67;;
22929;SDS011;11630;42.660;23.292;2023-07-20T10:23:06;7.10;;;2.72;;
22929;SDS011;11630;42.660;23.292;2023-07-20T10:25:36;6.43;;;2.80;;
22929;SDS011;11630;42.660;23.292;2023-07-20T10:28:08;6.40;;;2.47;;
22929;SDS011;11630;42.660;23.292;2023-07-20T10:30:41;9.28;;;2.83;;
22929;SDS011;11630;42.660;23.292;2023-07-20T10:33:12;6.65;;;2.33;;
22929;SDS011;11630;42.660;23.292;2023-07-20T10:35:56;11.35;;;2.90;;
22929;SDS011;11630;42.660;23.292;2023-07-20T10:38:41;10.63;;;3.27;;
22929;SDS011;11630;42.660;23.292;2023-07-20T10:41:20;7.00;;;2.58;;
22929;SDS011;11630;42.660;23.292;2023-07-20T10:43:58;9.55;;;2.85;;
22929;SDS011;11630;42.660;23.292;2023-07-20T10:46:49;10.38;;;3.12;;
22929;SDS011;11630;42.660;23.292;2023-07-20T10:49:09;13.48;;;2.80;;
22929;SDS011;11630;42.660;23.292;2023-07-20T10:51:46;16.17;;;3.92;;
22929;SDS011;11630;42.660;23.292;2023-07-20T10:56:50;10.45;;;3.50;;
22929;SDS011;11630;42.660;23.292;2023-07-20T11:02:02;11.65;;;4.05;;
22929;SDS011;11630;42.660;23.292;2023-07-20T11:04:42;4.42;;;2.67;;
22929;SDS011;11630;42.660;23.292;2023-07-20T11:07:16;11.50;;;3.10;;
22929;SDS011;11630;42.660;23.292;2023-07-20T11:09:47;11.20;;;4.40;;
22929;SDS011;11630;42.660;23.292;2023-07-20T11:12:18;14.98;;;3.65;;
22929;SDS011;11630;42.660;23.292;2023-07-20T11:14:55;9.83;;;3.50;;
22929;SDS011;11630;42.660;23.292;2023-07-20T11:17:30;10.68;;;3.50;;
22929;SDS011;11630;42.660;23.292;2023-07-20T11:20:01;6.97;;;4.85;;
22929;SDS011;11630;42.660;23.292;2023-07-20T11:22:32;8.70;;;3.62;;
22929;SDS011;11630;42.660;23.292;2023-07-20T11:25:03;11.63;;;5.20;;
22929;SDS011;11630;42.660;23.292;2023-07-20T11:27:38;15.25;;;4.78;;
22929;SDS011;11630;42.660;23.292;2023-07-20T11:30:14;20.75;;;5.03;;
22929;SDS011;11630;42.660;23.292;2023-07-20T11:32:47;8.60;;;4.53;;
22929;SDS011;11630;42.660;23.292;2023-07-20T11:35:12;5.83;;;4.60;;
22929;SDS011;11630;42.660;23.292;2023-07-20T11:37:42;8.38;;;4.75;;
22929;SDS011;11630;42.660;23.292;2023-07-20T11:40:13;9.78;;;4.78;;
22929;SDS011;11630;42.660;23.292;2023-07-20T11:42:43;8.43;;;4.53;;
22929;SDS011;11630;42.660;23.292;2023-07-20T11:45:13;9.60;;;5.25;;
22929;SDS011;11630;42.660;23.292;2023-07-20T11:47:44;7.22;;;4.78;;
22929;SDS011;11630;42.660;23.292;2023-07-20T11:50:15;8.38;;;4.92;;
22929;SDS011;11630;42.660;23.292;2023-07-20T11:52:46;8.73;;;4.50;;
22929;SDS011;11630;42.660;23.292;2023-07-20T11:55:17;9.95;;;4.17;;
22929;SDS011;11630;42.660;23.292;2023-07-20T11:58:21;6.92;;;4.47;;
22929;SDS011;11630;42.660;23.292;2023-07-20T12:00:35;12.85;;;4.45;;
22929;SDS011;11630;42.660;23.292;2023-07-20T12:03:09;8.63;;;4.53;;
22929;SDS011;11630;42.660;23.292;2023-07-20T12:05:41;11.43;;;4.80;;
22929;SDS011;11630;42.660;23.292;2023-07-20T12:08:12;10.05;;;4.95;;
22929;SDS011;11630;42.660;23.292;2023-07-20T12:10:42;5.60;;;4.30;;
22929;SDS011;11630;42.660;23.292;2023-07-20T12:13:15;8.20;;;4.03;;
22929;SDS011;11630;42.660;23.292;2023-07-20T12:15:46;16.12;;;3.05;;
22929;SDS011;11630;42.660;23.292;2023-07-20T12:18:17;10.23;;;3.62;;
22929;SDS011;11630;42.660;23.292;2023-07-20T12:20:48;7.65;;;3.35;;
22929;SDS011;11630;42.660;23.292;2023-07-20T12:23:21;16.85;;;5.37;;
22929;SDS011;11630;42.660;23.292;2023-07-20T12:25:52;5.25;;;3.42;;
22929;SDS011;11630;42.660;23.292;2023-07-20T12:28:21;7.58;;;3.08;;
22929;SDS011;11630;42.660;23.292;2023-07-20T12:30:52;11.43;;;3.77;;
22929;SDS011;11630;42.660;23.292;2023-07-20T12:33:26;7.35;;;3.00;;
22929;SDS011;11630;42.660;23.292;2023-07-20T12:35:57;8.13;;;3.05;;
22929;SDS011;11630;42.660;23.292;2023-07-20T12:38:28;9.75;;;3.30;;
22929;SDS011;11630;42.660;23.292;2023-07-20T12:41:01;7.42;;;3.15;;
22929;SDS011;11630;42.660;23.292;2023-07-20T12:43:32;13.22;;;3.40;;
22929;SDS011;11630;42.660;23.292;2023-07-20T12:46:03;7.15;;;2.90;;
22929;SDS011;11630;42.660;23.292;2023-07-20T12:48:34;6.78;;;3.00;;
22929;SDS011;11630;42.660;23.292;2023-07-20T12:51:04;9.93;;;2.98;;
22929;SDS011;11630;42.660;23.292;2023-07-20T12:53:35;7.78;;;2.83;;
22929;SDS011;11630;42.660;23.292;2023-07-20T12:56:05;16.23;;;3.92;;
22929;SDS011;11630;42.660;23.292;2023-07-20T12:58:36;5.03;;;3.10;;
22929;SDS011;11630;42.660;23.292;2023-07-20T13:01:07;10.95;;;4.17;;
22929;SDS011;11630;42.660;23.292;2023-07-20T13:03:38;11.30;;;3.27;;
22929;SDS011;11630;42.660;23.292;2023-07-20T13:06:09;9.30;;;3.52;;
22929;SDS011;11630;42.660;23.292;2023-07-20T13:08:40;9.88;;;3.27;;
22929;SDS011;11630;42.660;23.292;2023-07-20T13:11:11;13.48;;;3.20;;
22929;SDS011;11630;42.660;23.292;2023-07-20T13:13:42;11.20;;;3.75;;
22929;SDS011;11630;42.660;23.292;2023-07-20T13:16:12;8.63;;;3.08;;
22929;SDS011;11630;42.660;23.292;2023-07-20T13:18:43;12.23;;;3.62;;
22929;SDS011;11630;42.660;23.292;2023-07-20T13:21:14;10.35;;;3.30;;
22929;SDS011;11630;42.660;23.292;2023-07-20T13:23:43;9.55;;;3.05;;
22929;SDS011;11630;42.660;23.292;2023-07-20T13:26:15;8.03;;;2.83;;
22929;SDS011;11630;42.660;23.292;2023-07-20T13:28:46;11.20;;;3.45;;
22929;SDS011;11630;42.660;23.292;2023-07-20T13:31:17;4.60;;;3.27;;
22929;SDS011;11630;42.660;23.292;2023-07-20T13:33:48;6.92;;;2.77;;
22929;SDS011;11630;42.660;23.292;2023-07-20T13:36:19;11.60;;;2.98;;
22929;SDS011;11630;42.660;23.292;2023-07-20T13:38:50;14.15;;;2.80;;
22929;SDS011;11630;42.660;23.292;2023-07-20T13:41:20;14.45;;;3.20;;
22929;SDS011;11630;42.660;23.292;2023-07-20T13:43:51;13.55;;;3.98;;
22929;SDS011;11630;42.660;23.292;2023-07-20T13:46:22;18.37;;;3.60;;
22929;SDS011;11630;42.660;23.292;2023-07-20T13:48:53;7.05;;;2.85;;
22929;SDS011;11630;42.660;23.292;2023-07-20T13:51:24;8.30;;;2.62;;
22929;SDS011;11630;42.660;23.292;2023-07-20T13:53:55;7.15;;;2.98;;
22929;SDS011;11630;42.660;23.292;2023-07-20T13:56:25;10.93;;;2.87;;
22929;SDS011;11630;42.660;23.292;2023-07-20T13:58:57;8.20;;;2.55;;
22929;SDS011;11630;42.660;23.292;2023-07-20T14:01:28;10.58;;;3.33;;
22929;SDS011;11630;42.660;23.292;2023-07-20T14:03:58;13.22;;;3.40;;
22929;SDS011;11630;42.660;23.292;2023-07-20T14:06:30;8.95;;;2.83;;
22929;SDS011;11630;42.660;23.292;2023-07-20T14:09:02;11.12;;;3.65;;
22929;SDS011;11630;42.660;23.292;2023-07-20T14:11:32;7.42;;;2.50;;
22929;SDS011;11630;42.660;23.292;2023-07-20T14:14:03;8.70;;;2.80;;
22929;SDS011;11630;42.660;23.292;2023-07-20T14:16:33;16.50;;;3.58;;
22929;SDS011;11630;42.660;23.292;2023-07-20T14:19:04;14.18;;;3.17;;
22929;SDS011;11630;42.660;23.292;2023-07-20T14:21:35;14.55;;;3.25;;
22929;SDS011;11630;42.660;23.292;2023-07-20T14:24:06;11.33;;;2.75;;
22929;SDS011;11630;42.660;23.292;2023-07-20T14:26:37;8.65;;;3.05;;
22929;SDS011;11630;42.660;23.292;2023-07-20T14:29:07;9.38;;;2.62;;
22929;SDS011;11630;42.660;23.292;2023-07-20T14:31:37;7.28;;;2.47;;
22929;SDS011;11630;42.660;23.292;2023-07-20T14:34:08;8.78;;;3.20;;
22929;SDS011;11630;42.660;23.292;2023-07-20T14:36:39;12.98;;;4.15;;
22929;SDS011;11630;42.660;23.292;2023-07-20T14:39:10;20.02;;;3.62;;
22929;SDS011;11630;42.660;23.292;2023-07-20T14:41:42;9.98;;;2.85;;
22929;SDS011;11630;42.660;23.292;2023-07-20T14:44:12;10.50;;;3.35;;
22929;SDS011;11630;42.660;23.292;2023-07-20T14:46:43;15.05;;;3.17;;
22929;SDS011;11630;42.660;23.292;2023-07-20T14:49:13;13.08;;;3.00;;
22929;SDS011;11630;42.660;23.292;2023-07-20T14:51:44;12.93;;;2.70;;
22929;SDS011;11630;42.660;23.292;2023-07-20T14:54:15;11.55;;;3.10;;
22929;SDS011;11630;42.660;23.292;2023-07-20T14:56:50;6.65;;;2.60;;
22929;SDS011;11630;42.660;23.292;2023-07-20T14:59:20;8.88;;;2.70;;
22929;SDS011;11630;42.660;23.292;2023-07-20T15:01:52;10.35;;;3.20;;
22929;SDS011;11630;42.660;23.292;2023-07-20T15:04:23;7.37;;;2.52;;
22929;SDS011;11630;42.660;23.292;2023-07-20T15:06:53;6.42;;;2.70;;